sensor_id;sensor_type;location;lat;lon;timestamp;P1;durP1;ratioP1;P2;durP2;ratioP2
44995;SDS011;77360;49.470;11.004;2024-03-23T00:55:10;16.52;;;8.95;;
44995;SDS011;77360;49.470;11.004;2024-03-23T00:57:36;14.70;;;8.95;;
44995;SDS011;77360;49.470;11.004;2024-03-23T01:00:01;14.02;;;8.43;;
44995;SDS011;77360;49.470;11.004;2024-03-23T01:02:27;14.88;;;8.60;;
44995;SDS011;77360;49.470;11.004;2024-03-23T01:04:52;13.63;;;8.00;;
44995;SDS011;77360;49.470;11.004;2024-03-23T01:07:18;13.68;;;8.52;;
44995;SDS011;77360;49.470;11.004;2024-03-23T01:09:43;13.35;;;8.15;;
44995;SDS011;77360;49.470;11.004;2024-03-23T01:12:08;22.73;;;8.90;;
44995;SDS011;77360;49.470;11.004;2024-03-23T01:14:34;14.20;;;8.32;;
44995;SDS011;77360;49.470;11.004;2024-03-23T01:17:01;12.13;;;7.95;;
44995;SDS011;77360;49.470;11.004;2024-03-23T01:19:26;13.73;;;8.30;;
44995;SDS011;77360;49.470;11.004;2024-03-23T01:21:52;17.58;;;8.73;;
44995;SDS011;77360;49.470;11.004;2024-03-23T01:24:17;13.07;;;7.85;;
44995;SDS011;77360;49.470;11.004;2024-03-23T01:26:42;12.73;;;8.05;;
44995;SDS011;77360;49.470;11.004;2024-03-23T01:29:08;17.10;;;8.60;;
44995;SDS011;77360;49.470;11.004;2024-03-23T01:31:33;15.65;;;8.52;;
44995;SDS011;77360;49.470;11.004;2024-03-23T01:33:58;12.75;;;8.25;;
44995;SDS011;77360;49.470;11.004;2024-03-23T01:36:24;14.35;;;8.38;;
44995;SDS011;77360;49.470;11.004;2024-03-23T01:38:49;13.65;;;8.25;;
44995;SDS011;77360;49.470;11.004;2024-03-23T01:41:15;13.90;;;8.20;;
44995;SDS011;77360;49.470;11.004;2024-03-23T01:43:40;13.98;;;8.25;;
44995;SDS011;77360;49.470;11.004;2024-03-23T01:46:06;13.18;;;8.07;;
44995;SDS011;77360;49.470;11.004;2024-03-23T01:48:31;13.68;;;7.90;;
44995;SDS011;77360;49.470;11.004;2024-03-23T01:50:57;13.80;;;7.97;;
44995;SDS011;77360;49.470;11.004;2024-03-23T01:53:23;13.30;;;8.10;;
44995;SDS011;77360;49.470;11.004;2024-03-23T01:55:49;16.45;;;8.10;;
44995;SDS011;77360;49.470;11.004;2024-03-23T01:58:15;15.02;;;8.45;;
44995;SDS011;77360;49.470;11.004;2024-03-23T02:00:41;15.60;;;8.20;;
44995;SDS011;77360;49.470;11.004;2024-03-23T02:03:22;14.80;;;7.82;;
44995;SDS011;77360;49.470;11.004;2024-03-23T02:05:49;12.73;;;8.45;;
44995;SDS011;77360;49.470;11.004;2024-03-23T02:08:14;38.25;;;26.45;;
44995;SDS011;77360;49.470;11.004;2024-03-23T02:10:40;13.60;;;8.27;;
44995;SDS011;77360;49.470;11.004;2024-03-23T02:13:05;12.73;;;8.25;;
44995;SDS011;77360;49.470;11.004;2024-03-23T02:15:30;16.23;;;8.48;;
44995;SDS011;77360;49.470;11.004;2024-03-23T02:17:55;14.77;;;8.07;;
44995;SDS011;77360;49.470;11.004;2024-03-23T02:20:21;13.10;;;7.93;;
44995;SDS011;77360;49.470;11.004;2024-03-23T02:22:46;12.65;;;7.85;;
44995;SDS011;77360;49.470;11.004;2024-03-23T02:25:11;15.07;;;8.05;;
44995;SDS011;77360;49.470;11.004;2024-03-23T02:27:36;13.60;;;7.68;;
44995;SDS011;77360;49.470;11.004;2024-03-23T02:30:04;13.45;;;7.70;;
44995;SDS011;77360;49.470;11.004;2024-03-23T02:32:29;14.82;;;8.10;;
44995;SDS011;77360;49.470;11.004;2024-03-23T02:34:55;16.08;;;8.30;;
44995;SDS011;77360;49.470;11.004;2024-03-23T02:37:20;14.90;;;7.30;;
44995;SDS011;77360;49.470;11.004;2024-03-23T02:39:45;13.52;;;7.72;;
44995;SDS011;77360;49.470;11.004;2024-03-23T02:42:10;15.98;;;8.43;;
44995;SDS011;77360;49.470;11.004;2024-03-23T02:44:36;14.05;;;8.63;;
44995;SDS011;77360;49.470;11.004;2024-03-23T02:47:01;13.70;;;7.97;;
44995;SDS011;77360;49.470;11.004;2024-03-23T02:49:27;14.80;;;8.05;;
44995;SDS011;77360;49.470;11.004;2024-03-23T02:51:52;14.27;;;7.50;;
44995;SDS011;77360;49.470;11.004;2024-03-23T02:54:18;18.30;;;7.93;;
44995;SDS011;77360;49.470;11.004;2024-03-23T02:56:43;12.93;;;7.63;;
44995;SDS011;77360;49.470;11.004;2024-03-23T02:59:08;12.77;;;7.93;;
44995;SDS011;77360;49.470;11.004;2024-03-23T03:01:33;14.45;;;8.15;;
44995;SDS011;77360;49.470;11.004;2024-03-23T03:04:00;15.63;;;7.38;;
44995;SDS011;77360;49.470;11.004;2024-03-23T03:06:25;14.88;;;7.85;;
44995;SDS011;77360;49.470;11.004;2024-03-23T03:08:51;17.73;;;7.88;;
44995;SDS011;77360;49.470;11.004;2024-03-23T03:11:16;15.82;;;7.28;;
44995;SDS011;77360;49.470;11.004;2024-03-23T03:13:42;12.20;;;7.75;;
44995;SDS011;77360;49.470;11.004;2024-03-23T03:16:10;14.40;;;7.93;;
44995;SDS011;77360;49.470;11.004;2024-03-23T03:18:36;14.80;;;7.65;;
44995;SDS011;77360;49.470;11.004;2024-03-23T03:21:01;13.82;;;7.85;;
44995;SDS011;77360;49.470;11.004;2024-03-23T03:23:27;16.45;;;7.50;;
44995;SDS011;77360;49.470;11.004;2024-03-23T03:25:52;14.82;;;8.43;;
44995;SDS011;77360;49.470;11.004;2024-03-23T03:28:18;13.63;;;8.48;;
44995;SDS011;77360;49.470;11.004;2024-03-23T03:30:43;13.82;;;9.15;;
44995;SDS011;77360;49.470;11.004;2024-03-23T03:33:08;13.35;;;8.43;;
44995;SDS011;77360;49.470;11.004;2024-03-23T03:35:33;13.98;;;8.27;;
44995;SDS011;77360;49.470;11.004;2024-03-23T03:37:59;12.15;;;7.63;;
44995;SDS011;77360;49.470;11.004;2024-03-23T03:40:24;17.55;;;9.27;;
44995;SDS011;77360;49.470;11.004;2024-03-23T03:42:50;13.10;;;7.32;;
44995;SDS011;77360;49.470;11.004;2024-03-23T03:45:15;14.38;;;7.60;;
44995;SDS011;77360;49.470;11.004;2024-03-23T03:47:40;14.70;;;7.95;;
44995;SDS011;77360;49.470;11.004;2024-03-23T03:50:06;13.52;;;8.13;;
44995;SDS011;77360;49.470;11.004;2024-03-23T03:52:31;16.17;;;8.55;;
44995;SDS011;77360;49.470;11.004;2024-03-23T03:55:01;19.23;;;8.85;;
44995;SDS011;77360;49.470;11.004;2024-03-23T03:57:30;14.32;;;8.00;;
44995;SDS011;77360;49.470;11.004;2024-03-23T03:59:55;15.05;;;8.20;;
44995;SDS011;77360;49.470;11.004;2024-03-23T04:02:21;12.80;;;8.20;;
44995;SDS011;77360;49.470;11.004;2024-03-23T04:04:46;16.52;;;8.63;;
44995;SDS011;77360;49.470;11.004;2024-03-23T04:07:12;15.52;;;8.45;;
44995;SDS011;77360;49.470;11.004;2024-03-23T04:09:37;12.88;;;8.15;;
44995;SDS011;77360;49.470;11.004;2024-03-23T04:12:02;13.63;;;8.23;;
44995;SDS011;77360;49.470;11.004;2024-03-23T04:14:28;13.02;;;7.78;;
44995;SDS011;77360;49.470;11.004;2024-03-23T04:16:53;14.38;;;7.70;;
44995;SDS011;77360;49.470;11.004;2024-03-23T04:19:18;13.52;;;8.68;;
44995;SDS011;77360;49.470;11.004;2024-03-23T04:21:44;15.32;;;8.43;;
44995;SDS011;77360;49.470;11.004;2024-03-23T04:24:10;15.75;;;8.80;;
44995;SDS011;77360;49.470;11.004;2024-03-23T04:26:41;13.00;;;8.07;;
44995;SDS011;77360;49.470;11.004;2024-03-23T04:29:07;14.55;;;8.38;;
44995;SDS011;77360;49.470;11.004;2024-03-23T04:31:32;18.35;;;8.23;;
44995;SDS011;77360;49.470;11.004;2024-03-23T04:33:59;14.80;;;8.90;;
44995;SDS011;77360;49.470;11.004;2024-03-23T04:36:25;14.43;;;8.93;;
44995;SDS011;77360;49.470;11.004;2024-03-23T04:38:50;17.10;;;9.73;;
44995;SDS011;77360;49.470;11.004;2024-03-23T04:41:17;13.05;;;8.60;;
44995;SDS011;77360;49.470;11.004;2024-03-23T04:43:43;13.77;;;8.23;;
44995;SDS011;77360;49.470;11.004;2024-03-23T04:46:08;14.23;;;8.10;;
44995;SDS011;77360;49.470;11.004;2024-03-23T04:48:33;15.70;;;9.05;;
44995;SDS011;77360;49.470;11.004;2024-03-23T04:50:58;16.02;;;8.25;;
44995;SDS011;77360;49.470;11.004;2024-03-23T04:53:24;13.32;;;8.38;;
44995;SDS011;77360;49.470;11.004;2024-03-23T04:55:53;13.35;;;8.27;;
44995;SDS011;77360;49.470;11.004;2024-03-23T04:58:19;12.80;;;8.10;;
44995;SDS011;77360;49.470;11.004;2024-03-23T05:00:44;12.80;;;7.78;;
44995;SDS011;77360;49.470;11.004;2024-03-23T05:03:10;13.80;;;8.07;;
44995;SDS011;77360;49.470;11.004;2024-03-23T05:05:35;14.57;;;7.88;;
44995;SDS011;77360;49.470;11.004;2024-03-23T05:08:00;14.25;;;7.25;;
44995;SDS011;77360;49.470;11.004;2024-03-23T05:10:25;11.40;;;7.25;;
44995;SDS011;77360;49.470;11.004;2024-03-23T05:12:51;12.00;;;6.43;;
44995;SDS011;77360;49.470;11.004;2024-03-23T05:15:16;12.00;;;7.88;;
44995;SDS011;77360;49.470;11.004;2024-03-23T05:17:42;12.57;;;6.57;;
44995;SDS011;77360;49.470;11.004;2024-03-23T05:20:07;12.68;;;6.68;;
44995;SDS011;77360;49.470;11.004;2024-03-23T05:22:37;13.25;;;6.57;;
44995;SDS011;77360;49.470;11.004;2024-03-23T05:25:03;10.77;;;6.00;;
44995;SDS011;77360;49.470;11.004;2024-03-23T05:27:30;11.23;;;5.75;;
44995;SDS011;77360;49.470;11.004;2024-03-23T05:29:56;10.98;;;6.07;;
44995;SDS011;77360;49.470;11.004;2024-03-23T05:32:21;9.93;;;5.63;;
44995;SDS011;77360;49.470;11.004;2024-03-23T05:34:47;11.30;;;5.30;;
44995;SDS011;77360;49.470;11.004;2024-03-23T05:37:12;10.90;;;5.03;;
44995;SDS011;77360;49.470;11.004;2024-03-23T05:39:37;10.68;;;5.35;;
44995;SDS011;77360;49.470;11.004;2024-03-23T05:42:03;11.98;;;5.80;;
44995;SDS011;77360;49.470;11.004;2024-03-23T05:44:28;10.45;;;5.55;;
44995;SDS011;77360;49.470;11.004;2024-03-23T05:46:53;12.43;;;5.00;;
44995;SDS011;77360;49.470;11.004;2024-03-23T05:49:19;15.25;;;7.15;;
44995;SDS011;77360;49.470;11.004;2024-03-23T05:51:45;7.82;;;3.85;;
44995;SDS011;77360;49.470;11.004;2024-03-23T05:54:10;9.90;;;4.32;;
44995;SDS011;77360;49.470;11.004;2024-03-23T05:56:35;9.07;;;5.05;;
44995;SDS011;77360;49.470;11.004;2024-03-23T05:59:00;9.70;;;4.95;;
44995;SDS011;77360;49.470;11.004;2024-03-23T06:01:26;9.95;;;5.63;;
44995;SDS011;77360;49.470;11.004;2024-03-23T06:03:53;10.25;;;5.35;;
44995;SDS011;77360;49.470;11.004;2024-03-23T06:06:19;9.32;;;4.70;;
44995;SDS011;77360;49.470;11.004;2024-03-23T06:08:44;9.82;;;5.00;;
44995;SDS011;77360;49.470;11.004;2024-03-23T06:11:09;7.75;;;4.80;;
44995;SDS011;77360;49.470;11.004;2024-03-23T06:13:35;7.70;;;4.57;;
44995;SDS011;77360;49.470;11.004;2024-03-23T06:16:00;8.45;;;4.00;;
44995;SDS011;77360;49.470;11.004;2024-03-23T06:18:26;10.40;;;4.95;;
44995;SDS011;77360;49.470;11.004;2024-03-23T06:20:52;12.60;;;5.82;;
44995;SDS011;77360;49.470;11.004;2024-03-23T06:23:18;8.15;;;4.32;;
44995;SDS011;77360;49.470;11.004;2024-03-23T06:25:45;10.07;;;4.88;;
44995;SDS011;77360;49.470;11.004;2024-03-23T06:28:10;13.10;;;5.97;;
44995;SDS011;77360;49.470;11.004;2024-03-23T06:30:36;11.38;;;6.28;;
44995;SDS011;77360;49.470;11.004;2024-03-23T06:33:01;10.73;;;6.10;;
44995;SDS011;77360;49.470;11.004;2024-03-23T06:35:26;12.93;;;6.57;;
44995;SDS011;77360;49.470;11.004;2024-03-23T06:37:52;13.32;;;6.57;;
44995;SDS011;77360;49.470;11.004;2024-03-23T06:40:17;10.32;;;5.88;;
44995;SDS011;77360;49.470;11.004;2024-03-23T06:42:42;12.85;;;6.75;;
44995;SDS011;77360;49.470;11.004;2024-03-23T06:45:08;12.38;;;7.30;;
44995;SDS011;77360;49.470;11.004;2024-03-23T06:47:34;13.77;;;6.25;;
44995;SDS011;77360;49.470;11.004;2024-03-23T06:49:59;13.00;;;6.88;;
44995;SDS011;77360;49.470;11.004;2024-03-23T06:52:28;11.32;;;5.93;;
44995;SDS011;77360;49.470;11.004;2024-03-23T06:54:54;15.55;;;7.60;;
44995;SDS011;77360;49.470;11.004;2024-03-23T06:57:19;10.68;;;5.50;;
44995;SDS011;77360;49.470;11.004;2024-03-23T06:59:45;12.20;;;7.15;;
44995;SDS011;77360;49.470;11.004;2024-03-23T07:02:10;10.52;;;6.28;;
44995;SDS011;77360;49.470;11.004;2024-03-23T07:04:36;12.75;;;6.85;;
44995;SDS011;77360;49.470;11.004;2024-03-23T07:07:01;13.95;;;7.97;;
44995;SDS011;77360;49.470;11.004;2024-03-23T07:09:30;10.13;;;5.35;;
44995;SDS011;77360;49.470;11.004;2024-03-23T07:11:56;12.80;;;7.50;;
44995;SDS011;77360;49.470;11.004;2024-03-23T07:14:22;13.15;;;6.30;;
44995;SDS011;77360;49.470;11.004;2024-03-23T07:16:47;12.90;;;7.13;;
44995;SDS011;77360;49.470;11.004;2024-03-23T07:19:14;12.88;;;7.18;;
44995;SDS011;77360;49.470;11.004;2024-03-23T07:21:41;15.10;;;6.10;;
44995;SDS011;77360;49.470;11.004;2024-03-23T07:24:07;10.18;;;5.28;;
44995;SDS011;77360;49.470;11.004;2024-03-23T07:26:32;10.50;;;5.53;;
44995;SDS011;77360;49.470;11.004;2024-03-23T07:28:57;11.00;;;5.75;;
44995;SDS011;77360;49.470;11.004;2024-03-23T07:31:23;8.38;;;4.82;;
44995;SDS011;77360;49.470;11.004;2024-03-23T07:33:49;13.10;;;5.88;;
44995;SDS011;77360;49.470;11.004;2024-03-23T07:36:14;5.82;;;3.15;;
44995;SDS011;77360;49.470;11.004;2024-03-23T07:38:43;10.48;;;6.30;;
44995;SDS011;77360;49.470;11.004;2024-03-23T07:41:12;10.32;;;5.30;;
44995;SDS011;77360;49.470;11.004;2024-03-23T07:43:42;11.45;;;6.93;;
44995;SDS011;77360;49.470;11.004;2024-03-23T07:46:07;10.85;;;5.90;;
44995;SDS011;77360;49.470;11.004;2024-03-23T07:48:32;11.10;;;7.13;;
44995;SDS011;77360;49.470;11.004;2024-03-23T07:50:58;12.38;;;7.40;;
44995;SDS011;77360;49.470;11.004;2024-03-23T07:53:34;11.65;;;6.40;;
44995;SDS011;77360;49.470;11.004;2024-03-23T07:56:01;12.50;;;6.43;;
44995;SDS011;77360;49.470;11.004;2024-03-23T07:58:27;12.80;;;6.70;;
44995;SDS011;77360;49.470;11.004;2024-03-23T08:00:53;9.30;;;6.18;;
44995;SDS011;77360;49.470;11.004;2024-03-23T08:03:19;11.90;;;6.10;;
44995;SDS011;77360;49.470;11.004;2024-03-23T08:05:45;11.70;;;6.75;;
44995;SDS011;77360;49.470;11.004;2024-03-23T08:08:11;10.90;;;5.70;;
44995;SDS011;77360;49.470;11.004;2024-03-23T08:10:37;14.55;;;7.95;;
44995;SDS011;77360;49.470;11.004;2024-03-23T08:13:11;11.35;;;6.43;;
44995;SDS011;77360;49.470;11.004;2024-03-23T08:15:36;12.10;;;6.43;;
44995;SDS011;77360;49.470;11.004;2024-03-23T08:18:02;12.68;;;4.63;;
44995;SDS011;77360;49.470;11.004;2024-03-23T08:20:28;10.15;;;5.05;;
44995;SDS011;77360;49.470;11.004;2024-03-23T08:22:53;12.60;;;6.57;;
44995;SDS011;77360;49.470;11.004;2024-03-23T08:25:18;10.48;;;4.97;;
44995;SDS011;77360;49.470;11.004;2024-03-23T08:27:44;9.50;;;5.18;;
44995;SDS011;77360;49.470;11.004;2024-03-23T08:30:10;10.20;;;4.57;;
44995;SDS011;77360;49.470;11.004;2024-03-23T08:32:36;7.20;;;3.38;;
44995;SDS011;77360;49.470;11.004;2024-03-23T08:35:01;5.80;;;2.78;;
44995;SDS011;77360;49.470;11.004;2024-03-23T08:37:27;7.45;;;2.50;;
44995;SDS011;77360;49.470;11.004;2024-03-23T08:39:52;5.53;;;2.78;;
44995;SDS011;77360;49.470;11.004;2024-03-23T08:42:17;5.82;;;2.83;;
44995;SDS011;77360;49.470;11.004;2024-03-23T08:44:43;4.40;;;2.33;;
44995;SDS011;77360;49.470;11.004;2024-03-23T08:47:11;5.35;;;2.53;;
44995;SDS011;77360;49.470;11.004;2024-03-23T08:49:36;4.50;;;2.28;;
44995;SDS011;77360;49.470;11.004;2024-03-23T08:52:02;3.20;;;1.90;;
44995;SDS011;77360;49.470;11.004;2024-03-23T08:54:27;5.07;;;2.17;;
44995;SDS011;77360;49.470;11.004;2024-03-23T08:56:54;4.72;;;2.15;;
44995;SDS011;77360;49.470;11.004;2024-03-23T08:59:19;4.43;;;2.08;;
44995;SDS011;77360;49.470;11.004;2024-03-23T09:01:45;4.38;;;1.98;;
44995;SDS011;77360;49.470;11.004;2024-03-23T09:04:10;1.70;;;1.15;;
44995;SDS011;77360;49.470;11.004;2024-03-23T09:06:35;2.97;;;1.60;;
44995;SDS011;77360;49.470;11.004;2024-03-23T09:09:01;3.17;;;2.00;;
44995;SDS011;77360;49.470;11.004;2024-03-23T09:11:26;4.95;;;1.40;;
44995;SDS011;77360;49.470;11.004;2024-03-23T09:13:52;2.75;;;1.30;;
44995;SDS011;77360;49.470;11.004;2024-03-23T09:16:17;3.00;;;1.25;;
44995;SDS011;77360;49.470;11.004;2024-03-23T09:18:42;2.25;;;1.23;;
44995;SDS011;77360;49.470;11.004;2024-03-23T09:21:11;2.75;;;1.23;;
44995;SDS011;77360;49.470;11.004;2024-03-23T09:23:38;2.35;;;0.80;;
44995;SDS011;77360;49.470;11.004;2024-03-23T09:26:04;0.95;;;0.63;;
44995;SDS011;77360;49.470;11.004;2024-03-23T09:28:29;0.88;;;0.60;;
44995;SDS011;77360;49.470;11.004;2024-03-23T09:30:55;0.77;;;0.50;;
44995;SDS011;77360;49.470;11.004;2024-03-23T09:33:26;1.90;;;0.75;;
44995;SDS011;77360;49.470;11.004;2024-03-23T09:35:52;0.65;;;0.60;;
44995;SDS011;77360;49.470;11.004;2024-03-23T09:38:17;1.05;;;0.45;;
44995;SDS011;77360;49.470;11.004;2024-03-23T09:40:42;0.85;;;0.50;;
44995;SDS011;77360;49.470;11.004;2024-03-23T09:43:09;0.63;;;0.40;;
44995;SDS011;77360;49.470;11.004;2024-03-23T09:45:35;1.08;;;0.40;;
44995;SDS011;77360;49.470;11.004;2024-03-23T09:48:03;0.90;;;0.63;;
44995;SDS011;77360;49.470;11.004;2024-03-23T09:50:29;0.57;;;0.38;;
44995;SDS011;77360;49.470;11.004;2024-03-23T09:52:54;0.85;;;0.60;;
44995;SDS011;77360;49.470;11.004;2024-03-23T09:55:20;1.48;;;0.57;;
44995;SDS011;77360;49.470;11.004;2024-03-23T09:57:45;2.67;;;0.38;;
44995;SDS011;77360;49.470;11.004;2024-03-23T10:00:11;0.40;;;0.40;;
44995;SDS011;77360;49.470;11.004;2024-03-23T10:02:37;1.00;;;0.43;;
44995;SDS011;77360;49.470;11.004;2024-03-23T10:05:03;0.80;;;0.30;;
44995;SDS011;77360;49.470;11.004;2024-03-23T10:07:29;0.30;;;0.30;;
44995;SDS011;77360;49.470;11.004;2024-03-23T10:09:54;0.90;;;0.80;;
44995;SDS011;77360;49.470;11.004;2024-03-23T10:12:20;0.93;;;0.40;;
44995;SDS011;77360;49.470;11.004;2024-03-23T10:14:46;1.15;;;0.60;;
44995;SDS011;77360;49.470;11.004;2024-03-23T10:19:47;1.17;;;0.60;;
44995;SDS011;77360;49.470;11.004;2024-03-23T10:22:15;0.77;;;0.55;;
44995;SDS011;77360;49.470;11.004;2024-03-23T10:24:42;3.97;;;1.13;;
44995;SDS011;77360;49.470;11.004;2024-03-23T10:27:08;1.65;;;1.15;;
44995;SDS011;77360;49.470;11.004;2024-03-23T10:29:33;2.90;;;0.73;;
44995;SDS011;77360;49.470;11.004;2024-03-23T10:32:08;2.10;;;0.90;;
44995;SDS011;77360;49.470;11.004;2024-03-23T10:34:35;3.38;;;0.98;;
44995;SDS011;77360;49.470;11.004;2024-03-23T10:37:01;5.00;;;1.30;;
44995;SDS011;77360;49.470;11.004;2024-03-23T10:39:27;2.10;;;1.00;;
44995;SDS011;77360;49.470;11.004;2024-03-23T10:41:55;2.50;;;1.10;;
44995;SDS011;77360;49.470;11.004;2024-03-23T10:44:22;4.97;;;1.38;;
44995;SDS011;77360;49.470;11.004;2024-03-23T10:46:51;2.78;;;1.10;;
44995;SDS011;77360;49.470;11.004;2024-03-23T10:49:23;2.50;;;1.10;;
44995;SDS011;77360;49.470;11.004;2024-03-23T10:51:50;3.78;;;1.30;;
44995;SDS011;77360;49.470;11.004;2024-03-23T10:54:16;2.85;;;1.38;;
44995;SDS011;77360;49.470;11.004;2024-03-23T10:56:42;3.78;;;1.30;;
44995;SDS011;77360;49.470;11.004;2024-03-23T10:59:08;4.20;;;1.50;;
44995;SDS011;77360;49.470;11.004;2024-03-23T11:01:34;3.15;;;1.30;;
44995;SDS011;77360;49.470;11.004;2024-03-23T11:03:59;4.40;;;1.25;;
44995;SDS011;77360;49.470;11.004;2024-03-23T11:06:33;3.15;;;1.10;;
44995;SDS011;77360;49.470;11.004;2024-03-23T11:09:00;3.13;;;1.00;;
44995;SDS011;77360;49.470;11.004;2024-03-23T11:11:25;3.33;;;1.20;;
44995;SDS011;77360;49.470;11.004;2024-03-23T11:13:52;6.63;;;2.35;;
44995;SDS011;77360;49.470;11.004;2024-03-23T11:16:22;4.85;;;1.58;;
44995;SDS011;77360;49.470;11.004;2024-03-23T11:18:49;3.60;;;1.30;;
44995;SDS011;77360;49.470;11.004;2024-03-23T11:24:16;7.95;;;2.03;;
44995;SDS011;77360;49.470;11.004;2024-03-23T11:26:43;6.93;;;1.98;;
44995;SDS011;77360;49.470;11.004;2024-03-23T11:29:09;5.63;;;1.90;;
44995;SDS011;77360;49.470;11.004;2024-03-23T11:31:36;5.50;;;1.80;;
44995;SDS011;77360;49.470;11.004;2024-03-23T11:34:03;4.68;;;2.05;;
44995;SDS011;77360;49.470;11.004;2024-03-23T11:36:30;5.03;;;1.73;;
44995;SDS011;77360;49.470;11.004;2024-03-23T11:38:55;5.60;;;2.40;;
44995;SDS011;77360;49.470;11.004;2024-03-23T11:41:21;5.50;;;1.90;;
44995;SDS011;77360;49.470;11.004;2024-03-23T11:43:46;7.93;;;2.35;;
44995;SDS011;77360;49.470;11.004;2024-03-23T11:46:11;6.03;;;1.90;;
44995;SDS011;77360;49.470;11.004;2024-03-23T11:48:49;4.97;;;2.03;;
44995;SDS011;77360;49.470;11.004;2024-03-23T11:51:16;5.93;;;2.10;;
44995;SDS011;77360;49.470;11.004;2024-03-23T11:53:42;7.25;;;1.83;;
44995;SDS011;77360;49.470;11.004;2024-03-23T11:56:07;6.13;;;1.65;;
44995;SDS011;77360;49.470;11.004;2024-03-23T11:58:34;11.07;;;2.50;;
44995;SDS011;77360;49.470;11.004;2024-03-23T12:01:00;4.63;;;1.25;;
44995;SDS011;77360;49.470;11.004;2024-03-23T12:03:29;5.13;;;1.92;;
44995;SDS011;77360;49.470;11.004;2024-03-23T12:06:02;5.40;;;1.98;;
44995;SDS011;77360;49.470;11.004;2024-03-23T12:08:29;5.65;;;1.85;;
44995;SDS011;77360;49.470;11.004;2024-03-23T12:11:05;7.00;;;1.83;;
44995;SDS011;77360;49.470;11.004;2024-03-23T12:13:32;7.88;;;2.08;;
44995;SDS011;77360;49.470;11.004;2024-03-23T12:16:13;5.25;;;2.00;;
44995;SDS011;77360;49.470;11.004;2024-03-23T12:18:43;2.35;;;1.17;;
44995;SDS011;77360;49.470;11.004;2024-03-23T12:21:10;3.58;;;1.33;;
44995;SDS011;77360;49.470;11.004;2024-03-23T12:23:35;4.22;;;1.33;;
44995;SDS011;77360;49.470;11.004;2024-03-23T12:26:01;5.30;;;2.08;;
44995;SDS011;77360;49.470;11.004;2024-03-23T12:28:27;5.28;;;1.67;;
44995;SDS011;77360;49.470;11.004;2024-03-23T12:30:53;5.68;;;2.13;;
44995;SDS011;77360;49.470;11.004;2024-03-23T12:33:19;3.47;;;1.55;;
44995;SDS011;77360;49.470;11.004;2024-03-23T12:35:44;6.85;;;2.80;;
44995;SDS011;77360;49.470;11.004;2024-03-23T12:38:10;6.50;;;2.15;;
44995;SDS011;77360;49.470;11.004;2024-03-23T12:40:35;4.93;;;1.77;;
44995;SDS011;77360;49.470;11.004;2024-03-23T12:43:00;4.32;;;2.05;;
44995;SDS011;77360;49.470;11.004;2024-03-23T12:45:25;12.48;;;3.88;;
44995;SDS011;77360;49.470;11.004;2024-03-23T12:47:51;6.63;;;2.10;;
44995;SDS011;77360;49.470;11.004;2024-03-23T12:50:18;5.60;;;2.15;;
44995;SDS011;77360;49.470;11.004;2024-03-23T12:52:44;4.85;;;1.90;;
44995;SDS011;77360;49.470;11.004;2024-03-23T12:55:09;5.75;;;2.10;;
44995;SDS011;77360;49.470;11.004;2024-03-23T12:57:34;5.78;;;1.85;;
44995;SDS011;77360;49.470;11.004;2024-03-23T13:00:00;7.43;;;2.17;;
44995;SDS011;77360;49.470;11.004;2024-03-23T13:02:25;5.65;;;2.30;;
44995;SDS011;77360;49.470;11.004;2024-03-23T13:04:51;8.48;;;2.28;;
44995;SDS011;77360;49.470;11.004;2024-03-23T13:07:18;7.15;;;2.72;;
44995;SDS011;77360;49.470;11.004;2024-03-23T13:09:44;4.38;;;1.73;;
44995;SDS011;77360;49.470;11.004;2024-03-23T13:12:10;10.27;;;2.80;;
44995;SDS011;77360;49.470;11.004;2024-03-23T13:14:39;6.03;;;2.15;;
44995;SDS011;77360;49.470;11.004;2024-03-23T13:17:05;8.93;;;2.38;;
44995;SDS011;77360;49.470;11.004;2024-03-23T13:19:31;7.82;;;2.10;;
44995;SDS011;77360;49.470;11.004;2024-03-23T13:21:57;6.18;;;2.35;;
44995;SDS011;77360;49.470;11.004;2024-03-23T13:24:24;10.30;;;2.38;;
44995;SDS011;77360;49.470;11.004;2024-03-23T13:26:53;8.32;;;2.17;;
44995;SDS011;77360;49.470;11.004;2024-03-23T13:29:19;6.57;;;2.55;;
44995;SDS011;77360;49.470;11.004;2024-03-23T13:31:48;7.72;;;2.08;;
44995;SDS011;77360;49.470;11.004;2024-03-23T13:34:14;7.97;;;2.00;;
44995;SDS011;77360;49.470;11.004;2024-03-23T13:36:43;7.78;;;2.53;;
44995;SDS011;77360;49.470;11.004;2024-03-23T13:39:09;7.93;;;2.55;;
44995;SDS011;77360;49.470;11.004;2024-03-23T13:41:38;5.20;;;1.85;;
44995;SDS011;77360;49.470;11.004;2024-03-23T13:44:05;5.88;;;1.85;;
44995;SDS011;77360;49.470;11.004;2024-03-23T13:46:31;8.77;;;2.70;;
44995;SDS011;77360;49.470;11.004;2024-03-23T13:48:56;6.95;;;2.00;;
44995;SDS011;77360;49.470;11.004;2024-03-23T13:51:25;5.80;;;2.03;;
44995;SDS011;77360;49.470;11.004;2024-03-23T13:53:54;8.38;;;1.70;;
44995;SDS011;77360;49.470;11.004;2024-03-23T13:56:20;5.18;;;2.15;;
44995;SDS011;77360;49.470;11.004;2024-03-23T13:58:46;4.68;;;1.77;;
44995;SDS011;77360;49.470;11.004;2024-03-23T14:01:11;7.78;;;2.05;;
44995;SDS011;77360;49.470;11.004;2024-03-23T14:03:40;7.13;;;1.90;;
44995;SDS011;77360;49.470;11.004;2024-03-23T14:06:06;5.82;;;1.73;;
44995;SDS011;77360;49.470;11.004;2024-03-23T14:08:32;6.18;;;2.05;;
44995;SDS011;77360;49.470;11.004;2024-03-23T14:11:00;7.22;;;2.10;;
44995;SDS011;77360;49.470;11.004;2024-03-23T14:13:26;7.13;;;1.88;;
44995;SDS011;77360;49.470;11.004;2024-03-23T14:15:53;9.43;;;1.75;;
44995;SDS011;77360;49.470;11.004;2024-03-23T14:18:18;8.80;;;2.03;;
44995;SDS011;77360;49.470;11.004;2024-03-23T14:20:44;4.00;;;1.50;;
44995;SDS011;77360;49.470;11.004;2024-03-23T14:23:09;9.50;;;2.38;;
44995;SDS011;77360;49.470;11.004;2024-03-23T14:25:34;8.10;;;1.48;;
44995;SDS011;77360;49.470;11.004;2024-03-23T14:27:59;4.10;;;1.60;;
44995;SDS011;77360;49.470;11.004;2024-03-23T14:30:25;6.82;;;1.98;;
44995;SDS011;77360;49.470;11.004;2024-03-23T14:32:50;10.25;;;1.92;;
44995;SDS011;77360;49.470;11.004;2024-03-23T14:35:16;7.90;;;1.80;;
44995;SDS011;77360;49.470;11.004;2024-03-23T14:37:41;4.68;;;1.60;;
44995;SDS011;77360;49.470;11.004;2024-03-23T14:40:07;4.57;;;1.63;;
44995;SDS011;77360;49.470;11.004;2024-03-23T14:42:33;4.55;;;1.45;;
44995;SDS011;77360;49.470;11.004;2024-03-23T14:44:58;7.28;;;2.20;;
44995;SDS011;77360;49.470;11.004;2024-03-23T14:47:23;5.03;;;1.70;;
44995;SDS011;77360;49.470;11.004;2024-03-23T14:49:49;5.93;;;1.75;;
44995;SDS011;77360;49.470;11.004;2024-03-23T14:52:15;8.80;;;2.05;;
44995;SDS011;77360;49.470;11.004;2024-03-23T14:54:41;4.80;;;1.65;;
44995;SDS011;77360;49.470;11.004;2024-03-23T14:57:07;10.07;;;1.88;;
44995;SDS011;77360;49.470;11.004;2024-03-23T14:59:34;8.68;;;2.45;;
44995;SDS011;77360;49.470;11.004;2024-03-23T15:01:59;9.25;;;2.05;;
44995;SDS011;77360;49.470;11.004;2024-03-23T15:04:25;7.55;;;1.98;;
44995;SDS011;77360;49.470;11.004;2024-03-23T15:06:50;6.47;;;2.03;;
44995;SDS011;77360;49.470;11.004;2024-03-23T15:09:15;7.80;;;2.28;;
44995;SDS011;77360;49.470;11.004;2024-03-23T15:11:41;7.38;;;2.30;;
44995;SDS011;77360;49.470;11.004;2024-03-23T15:14:06;6.57;;;2.78;;
44995;SDS011;77360;49.470;11.004;2024-03-23T15:16:32;6.95;;;2.63;;
44995;SDS011;77360;49.470;11.004;2024-03-23T15:18:57;11.07;;;3.25;;
44995;SDS011;77360;49.470;11.004;2024-03-23T15:21:23;5.72;;;2.65;;